createdAt,value
2022-08-12T00:07:53.631Z,48.21
2022-08-12T00:18:13.545Z,48.06
2022-08-12T00:28:33.452Z,49.06
2022-08-12T00:38:53.749Z,50.81
2022-08-12T00:48:55.084Z,50.39
2022-08-12T00:58:56.430Z,53.00
2022-08-12T01:09:16.587Z,52.67
2022-08-12T01:19:17.839Z,50.94
2022-08-12T01:29:23.515Z,50.01
2022-08-12T01:39:25.975Z,48.24
2022-08-12T01:49:27.302Z,47.81
2022-08-12T01:59:47.423Z,47.88
2022-08-12T02:10:07.713Z,48.38
2022-08-12T02:20:09.075Z,48.99
2022-08-12T02:30:10.422Z,49.86
2022-08-12T02:40:12.240Z,50.11
2022-08-12T02:50:13.676Z,52.98
2022-08-12T03:00:18.944Z,55.22
2022-08-12T03:10:25.152Z,56.29
2022-08-12T03:20:40.349Z,56.95
2022-08-12T03:30:43.226Z,57.00
2022-08-12T03:41:03.496Z,59.12
2022-08-12T03:51:23.545Z,57.78
2022-08-12T04:01:27.985Z,55.82
2022-08-12T04:11:48.072Z,55.51
2022-08-12T04:22:02.783Z,53.54
2022-08-12T04:32:06.714Z,52.61
2022-08-12T04:42:07.949Z,53.28
2022-08-12T04:52:09.296Z,54.73
2022-08-12T05:02:16.967Z,55.36
2022-08-12T05:12:23.505Z,57.58
2022-08-12T05:22:24.850Z,55.51
2022-08-12T05:32:26.200Z,54.63
2022-08-12T05:42:34.488Z,53.48
2022-08-12T05:52:36.143Z,52.69
2022-08-12T06:02:37.491Z,51.92
2022-08-12T06:12:38.981Z,51.76
2022-08-12T06:22:40.549Z,51.61
2022-08-12T06:32:51.669Z,51.32
2022-08-12T06:43:03.292Z,47.90
2022-08-12T06:53:05.905Z,47.59
2022-08-12T07:03:22.830Z,46.10
2022-08-12T07:13:25.173Z,46.71
2022-08-12T07:23:26.509Z,45.62
2022-08-12T07:33:31.177Z,43.79
2022-08-12T07:43:32.880Z,42.91
2022-08-12T07:53:35.096Z,43.89
2022-08-12T08:04:08.593Z,42.58
2022-08-12T08:14:10.671Z,41.59
2022-08-12T08:24:15.169Z,40.65
2022-08-12T08:34:33.722Z,40.24
2022-08-12T08:44:39.489Z,38.54
2022-08-12T08:54:40.860Z,38.23
2022-08-12T09:05:13.408Z,35.61
2022-08-12T09:15:16.575Z,33.58
2022-08-12T09:25:26.092Z,33.27
2022-08-12T09:35:28.500Z,31.24
2022-08-12T09:46:11.357Z,30.90
2022-08-12T09:56:06.744Z,29.29
2022-08-12T10:06:27.639Z,27.94
2022-08-12T10:16:39.184Z,27.12
2022-08-12T10:26:59.465Z,28.07
2022-08-12T10:37:22.962Z,26.98
2022-08-12T10:48:07.597Z,27.73
2022-08-12T10:58:14.363Z,27.66
2022-08-12T11:08:36.414Z,26.39
2022-08-12T11:18:34.028Z,26.17
2022-08-12T11:28:38.254Z,25.86
2022-08-12T11:38:39.888Z,25.75
2022-08-12T11:48:52.409Z,26.05
2022-08-12T12:01:57.818Z,25.36
2022-08-12T12:09:18.185Z,25.29
2022-08-12T12:30:17.770Z,25.97
2022-08-12T12:40:03.767Z,24.95
2022-08-12T12:50:07.446Z,24.49
2022-08-12T13:00:15.154Z,23.35
2022-08-12T13:10:16.563Z,23.48
2022-08-12T13:20:38.172Z,24.32
2022-08-12T13:30:39.180Z,23.71
2022-08-12T13:40:50.438Z,24.61
2022-08-12T13:50:52.911Z,24.13
2022-08-12T14:00:55.746Z,24.05
2022-08-12T14:10:57.286Z,24.25
2022-08-12T14:21:00.759Z,23.94
2022-08-12T14:31:05.576Z,23.91
2022-08-12T14:41:19.884Z,23.62
2022-08-12T14:52:44.211Z,21.85
2022-08-12T15:01:45.737Z,23.15
2022-08-12T15:11:55.326Z,23.19
2022-08-12T15:22:37.300Z,22.56
2022-08-12T15:32:20.303Z,22.74
2022-08-12T15:42:34.246Z,21.63
2022-08-12T15:52:36.212Z,21.32
2022-08-12T16:02:37.552Z,21.59
2022-08-12T16:12:39.653Z,21.69
2022-08-12T16:22:40.982Z,21.90
2022-08-12T16:32:53.785Z,22.37
2022-08-12T16:43:02.303Z,22.20
2022-08-12T16:53:06.279Z,21.95
2022-08-12T17:03:10.508Z,22.50
2022-08-12T17:13:11.769Z,22.83
2022-08-12T17:23:15.171Z,22.94
2022-08-12T17:33:24.830Z,24.36
2022-08-12T17:43:57.664Z,24.24
2022-08-12T17:54:11.086Z,24.82
2022-08-12T18:04:22.913Z,24.56
2022-08-12T18:14:30.827Z,25.49
2022-08-12T18:24:32.185Z,26.02
2022-08-12T18:34:34.299Z,27.14
2022-08-12T18:44:36.023Z,27.98
2022-08-12T18:54:41.292Z,28.53
2022-08-12T19:04:52.866Z,29.39
2022-08-12T19:15:04.113Z,30.11
2022-08-12T19:26:00.754Z,30.57
2022-08-12T19:36:08.085Z,30.94
2022-08-12T19:46:07.758Z,32.14
2022-08-12T19:56:12.161Z,32.22
2022-08-12T20:06:18.237Z,32.88
2022-08-12T20:16:47.452Z,33.13
2022-08-12T20:26:44.766Z,37.24
2022-08-12T20:36:47.661Z,38.36
2022-08-12T20:47:11.766Z,38.64
2022-08-12T20:57:21.571Z,37.26
2022-08-12T21:07:23.673Z,37.58
2022-08-12T21:18:00.407Z,38.46
2022-08-12T21:27:59.085Z,39.30
2022-08-12T21:38:02.531Z,40.06
2022-08-12T21:48:06.038Z,40.34
2022-08-12T21:58:10.494Z,40.75
2022-08-12T22:08:12.122Z,42.07
2022-08-12T22:18:16.094Z,44.50
2022-08-12T22:28:38.996Z,44.74
2022-08-12T22:38:40.574Z,45.07
2022-08-12T22:48:50.352Z,44.73
2022-08-12T22:59:02.511Z,45.96
2022-08-12T23:09:04.231Z,47.03
2022-08-12T23:19:10.638Z,46.87
2022-08-12T23:29:29.785Z,46.35
2022-08-12T23:40:14.560Z,47.21
2022-08-12T23:50:13.169Z,48.43
